sensor_id;sensor_type;location;lat;lon;timestamp;P1;durP1;ratioP1;P2;durP2;ratioP2
21886;SDS011;11108;49.988;8.182;2024-01-11T00:02:15;5.30;;;4.90;;
21886;SDS011;11108;49.988;8.182;2024-01-11T00:04:41;5.17;;;4.73;;
21886;SDS011;11108;49.988;8.182;2024-01-11T00:07:06;5.60;;;5.10;;
21886;SDS011;11108;49.988;8.182;2024-01-11T00:09:31;5.07;;;4.67;;
21886;SDS011;11108;49.988;8.182;2024-01-11T00:11:56;5.50;;;5.00;;
21886;SDS011;11108;49.988;8.182;2024-01-11T00:14:22;5.77;;;5.17;;
21886;SDS011;11108;49.988;8.182;2024-01-11T00:16:47;6.53;;;5.60;;
21886;SDS011;11108;49.988;8.182;2024-01-11T00:19:12;5.20;;;4.70;;
21886;SDS011;11108;49.988;8.182;2024-01-11T00:21:37;5.23;;;4.73;;
21886;SDS011;11108;49.988;8.182;2024-01-11T00:24:02;5.10;;;4.70;;
21886;SDS011;11108;49.988;8.182;2024-01-11T00:26:28;5.53;;;4.90;;
21886;SDS011;11108;49.988;8.182;2024-01-11T00:28:53;5.13;;;4.73;;
21886;SDS011;11108;49.988;8.182;2024-01-11T00:31:18;5.97;;;5.33;;
21886;SDS011;11108;49.988;8.182;2024-01-11T00:33:43;5.33;;;4.87;;
21886;SDS011;11108;49.988;8.182;2024-01-11T00:36:09;5.17;;;4.70;;
21886;SDS011;11108;49.988;8.182;2024-01-11T00:38:34;5.37;;;4.97;;
21886;SDS011;11108;49.988;8.182;2024-01-11T00:40:59;5.50;;;5.00;;
21886;SDS011;11108;49.988;8.182;2024-01-11T00:43:24;5.17;;;4.77;;
21886;SDS011;11108;49.988;8.182;2024-01-11T00:45:49;5.57;;;5.07;;
21886;SDS011;11108;49.988;8.182;2024-01-11T00:48:15;5.47;;;4.97;;
21886;SDS011;11108;49.988;8.182;2024-01-11T00:50:40;6.17;;;5.57;;
21886;SDS011;11108;49.988;8.182;2024-01-11T00:53:05;5.10;;;4.63;;
21886;SDS011;11108;49.988;8.182;2024-01-11T00:55:30;5.27;;;4.77;;
21886;SDS011;11108;49.988;8.182;2024-01-11T00:57:58;5.77;;;5.23;;
21886;SDS011;11108;49.988;8.182;2024-01-11T01:00:23;5.87;;;5.37;;
21886;SDS011;11108;49.988;8.182;2024-01-11T01:02:48;6.30;;;5.80;;
21886;SDS011;11108;49.988;8.182;2024-01-11T01:05:14;6.03;;;5.53;;
21886;SDS011;11108;49.988;8.182;2024-01-11T01:07:39;5.63;;;5.13;;
21886;SDS011;11108;49.988;8.182;2024-01-11T01:10:04;5.57;;;5.03;;
21886;SDS011;11108;49.988;8.182;2024-01-11T01:12:30;5.53;;;5.13;;
21886;SDS011;11108;49.988;8.182;2024-01-11T01:14:55;6.07;;;5.47;;
21886;SDS011;11108;49.988;8.182;2024-01-11T01:17:21;5.33;;;4.93;;
21886;SDS011;11108;49.988;8.182;2024-01-11T01:19:46;5.93;;;5.43;;
21886;SDS011;11108;49.988;8.182;2024-01-11T01:22:14;6.30;;;5.70;;
21886;SDS011;11108;49.988;8.182;2024-01-11T01:24:39;5.37;;;4.87;;
21886;SDS011;11108;49.988;8.182;2024-01-11T01:27:05;5.60;;;5.10;;
21886;SDS011;11108;49.988;8.182;2024-01-11T01:29:30;5.23;;;4.83;;
21886;SDS011;11108;49.988;8.182;2024-01-11T01:31:55;5.90;;;5.37;;
21886;SDS011;11108;49.988;8.182;2024-01-11T01:34:20;5.63;;;5.17;;
21886;SDS011;11108;49.988;8.182;2024-01-11T01:36:46;6.03;;;5.43;;
21886;SDS011;11108;49.988;8.182;2024-01-11T01:39:11;5.40;;;4.90;;
21886;SDS011;11108;49.988;8.182;2024-01-11T01:41:36;5.70;;;5.20;;
21886;SDS011;11108;49.988;8.182;2024-01-11T01:44:01;5.07;;;4.67;;
21886;SDS011;11108;49.988;8.182;2024-01-11T01:46:26;6.00;;;5.43;;
21886;SDS011;11108;49.988;8.182;2024-01-11T01:48:52;6.10;;;5.17;;
21886;SDS011;11108;49.988;8.182;2024-01-11T01:51:18;5.77;;;5.27;;
21886;SDS011;11108;49.988;8.182;2024-01-11T01:53:44;5.87;;;5.37;;
21886;SDS011;11108;49.988;8.182;2024-01-11T01:56:09;6.43;;;5.80;;
21886;SDS011;11108;49.988;8.182;2024-01-11T01:58:34;6.23;;;5.67;;
21886;SDS011;11108;49.988;8.182;2024-01-11T02:01:00;5.87;;;5.30;;
21886;SDS011;11108;49.988;8.182;2024-01-11T02:03:26;6.07;;;5.50;;
21886;SDS011;11108;49.988;8.182;2024-01-11T02:05:52;6.97;;;5.50;;
21886;SDS011;11108;49.988;8.182;2024-01-11T02:08:18;5.90;;;5.40;;
21886;SDS011;11108;49.988;8.182;2024-01-11T02:10:45;6.27;;;5.77;;
21886;SDS011;11108;49.988;8.182;2024-01-11T02:13:11;6.33;;;5.77;;
21886;SDS011;11108;49.988;8.182;2024-01-11T02:15:36;5.63;;;5.13;;
21886;SDS011;11108;49.988;8.182;2024-01-11T02:18:01;6.13;;;5.63;;
21886;SDS011;11108;49.988;8.182;2024-01-11T02:20:27;5.43;;;4.97;;
21886;SDS011;11108;49.988;8.182;2024-01-11T02:22:53;5.80;;;5.30;;
21886;SDS011;11108;49.988;8.182;2024-01-11T02:25:21;5.80;;;5.30;;
21886;SDS011;11108;49.988;8.182;2024-01-11T02:27:47;5.77;;;5.27;;
21886;SDS011;11108;49.988;8.182;2024-01-11T02:30:12;5.90;;;5.40;;
21886;SDS011;11108;49.988;8.182;2024-01-11T02:32:37;6.20;;;5.67;;
21886;SDS011;11108;49.988;8.182;2024-01-11T02:35:03;6.00;;;5.50;;
21886;SDS011;11108;49.988;8.182;2024-01-11T02:37:28;6.17;;;5.57;;
21886;SDS011;11108;49.988;8.182;2024-01-11T02:39:54;5.80;;;5.30;;
21886;SDS011;11108;49.988;8.182;2024-01-11T02:42:19;6.07;;;5.60;;
21886;SDS011;11108;49.988;8.182;2024-01-11T02:44:45;6.07;;;5.47;;
21886;SDS011;11108;49.988;8.182;2024-01-11T02:47:10;5.53;;;5.10;;
21886;SDS011;11108;49.988;8.182;2024-01-11T02:49:35;6.03;;;5.53;;
21886;SDS011;11108;49.988;8.182;2024-01-11T02:52:00;6.10;;;5.60;;
21886;SDS011;11108;49.988;8.182;2024-01-11T02:54:25;6.17;;;5.50;;
21886;SDS011;11108;49.988;8.182;2024-01-11T02:56:51;6.57;;;5.97;;
21886;SDS011;11108;49.988;8.182;2024-01-11T02:59:16;6.00;;;5.50;;
21886;SDS011;11108;49.988;8.182;2024-01-11T03:01:41;6.17;;;5.67;;
21886;SDS011;11108;49.988;8.182;2024-01-11T03:04:06;5.87;;;5.37;;
21886;SDS011;11108;49.988;8.182;2024-01-11T03:06:31;5.90;;;5.40;;
21886;SDS011;11108;49.988;8.182;2024-01-11T03:08:57;6.30;;;5.80;;
21886;SDS011;11108;49.988;8.182;2024-01-11T03:11:22;5.77;;;5.27;;
21886;SDS011;11108;49.988;8.182;2024-01-11T03:13:47;6.40;;;5.80;;
21886;SDS011;11108;49.988;8.182;2024-01-11T03:16:12;6.37;;;5.67;;
21886;SDS011;11108;49.988;8.182;2024-01-11T03:18:38;6.63;;;6.03;;
21886;SDS011;11108;49.988;8.182;2024-01-11T03:21:04;6.33;;;5.83;;
21886;SDS011;11108;49.988;8.182;2024-01-11T03:23:29;6.37;;;5.77;;
21886;SDS011;11108;49.988;8.182;2024-01-11T03:25:54;6.17;;;5.57;;
21886;SDS011;11108;49.988;8.182;2024-01-11T03:28:19;6.67;;;5.80;;
21886;SDS011;11108;49.988;8.182;2024-01-11T03:30:44;6.10;;;5.40;;
21886;SDS011;11108;49.988;8.182;2024-01-11T03:33:10;6.40;;;5.80;;
21886;SDS011;11108;49.988;8.182;2024-01-11T03:35:35;6.03;;;5.53;;
21886;SDS011;11108;49.988;8.182;2024-01-11T03:38:00;6.20;;;5.60;;
21886;SDS011;11108;49.988;8.182;2024-01-11T03:40:25;7.00;;;5.97;;
21886;SDS011;11108;49.988;8.182;2024-01-11T03:42:51;5.93;;;5.37;;
21886;SDS011;11108;49.988;8.182;2024-01-11T03:45:19;6.70;;;5.97;;
21886;SDS011;11108;49.988;8.182;2024-01-11T03:47:44;6.67;;;5.97;;
21886;SDS011;11108;49.988;8.182;2024-01-11T03:50:12;6.17;;;5.57;;
21886;SDS011;11108;49.988;8.182;2024-01-11T03:52:38;6.07;;;5.57;;
21886;SDS011;11108;49.988;8.182;2024-01-11T03:55:04;6.30;;;5.70;;
21886;SDS011;11108;49.988;8.182;2024-01-11T03:57:29;6.70;;;6.13;;
21886;SDS011;11108;49.988;8.182;2024-01-11T03:59:54;6.50;;;6.00;;
21886;SDS011;11108;49.988;8.182;2024-01-11T04:02:19;6.17;;;5.67;;
21886;SDS011;11108;49.988;8.182;2024-01-11T04:04:44;6.40;;;5.80;;
21886;SDS011;11108;49.988;8.182;2024-01-11T04:07:10;6.33;;;5.83;;
21886;SDS011;11108;49.988;8.182;2024-01-11T04:09:36;6.00;;;5.53;;
21886;SDS011;11108;49.988;8.182;2024-01-11T04:12:02;6.07;;;5.57;;
21886;SDS011;11108;49.988;8.182;2024-01-11T04:14:28;6.60;;;6.00;;
21886;SDS011;11108;49.988;8.182;2024-01-11T04:16:53;6.23;;;5.70;;
21886;SDS011;11108;49.988;8.182;2024-01-11T04:19:19;6.20;;;5.70;;
21886;SDS011;11108;49.988;8.182;2024-01-11T04:21:45;6.47;;;5.97;;
21886;SDS011;11108;49.988;8.182;2024-01-11T04:24:10;6.57;;;5.93;;
21886;SDS011;11108;49.988;8.182;2024-01-11T04:26:35;6.13;;;5.60;;
21886;SDS011;11108;49.988;8.182;2024-01-11T04:29:00;6.20;;;5.60;;
21886;SDS011;11108;49.988;8.182;2024-01-11T04:31:26;6.37;;;5.87;;
21886;SDS011;11108;49.988;8.182;2024-01-11T04:33:51;7.07;;;6.23;;
21886;SDS011;11108;49.988;8.182;2024-01-11T04:36:17;6.13;;;5.63;;
21886;SDS011;11108;49.988;8.182;2024-01-11T04:38:42;8.03;;;6.47;;
21886;SDS011;11108;49.988;8.182;2024-01-11T04:41:14;6.60;;;6.00;;
21886;SDS011;11108;49.988;8.182;2024-01-11T04:43:40;6.53;;;5.93;;
21886;SDS011;11108;49.988;8.182;2024-01-11T04:46:16;6.07;;;5.60;;
21886;SDS011;11108;49.988;8.182;2024-01-11T04:48:41;6.90;;;6.20;;
21886;SDS011;11108;49.988;8.182;2024-01-11T04:51:07;6.50;;;5.93;;
21886;SDS011;11108;49.988;8.182;2024-01-11T04:53:32;6.53;;;5.93;;
21886;SDS011;11108;49.988;8.182;2024-01-11T04:55:57;6.87;;;6.03;;
21886;SDS011;11108;49.988;8.182;2024-01-11T04:58:22;6.70;;;6.13;;
21886;SDS011;11108;49.988;8.182;2024-01-11T05:00:48;7.30;;;6.40;;
21886;SDS011;11108;49.988;8.182;2024-01-11T05:03:13;6.40;;;5.90;;
21886;SDS011;11108;49.988;8.182;2024-01-11T05:05:38;6.00;;;5.50;;
21886;SDS011;11108;49.988;8.182;2024-01-11T05:08:04;6.80;;;6.20;;
21886;SDS011;11108;49.988;8.182;2024-01-11T05:10:29;6.70;;;6.13;;
21886;SDS011;11108;49.988;8.182;2024-01-11T05:12:54;6.03;;;5.53;;
21886;SDS011;11108;49.988;8.182;2024-01-11T05:15:19;6.43;;;5.83;;
21886;SDS011;11108;49.988;8.182;2024-01-11T05:17:44;7.00;;;6.40;;
21886;SDS011;11108;49.988;8.182;2024-01-11T05:20:10;6.33;;;5.70;;
21886;SDS011;11108;49.988;8.182;2024-01-11T05:22:35;6.63;;;5.83;;
21886;SDS011;11108;49.988;8.182;2024-01-11T05:25:01;6.80;;;6.20;;
21886;SDS011;11108;49.988;8.182;2024-01-11T05:27:26;6.10;;;5.60;;
21886;SDS011;11108;49.988;8.182;2024-01-11T05:29:52;5.87;;;5.37;;
21886;SDS011;11108;49.988;8.182;2024-01-11T05:32:17;6.57;;;5.97;;
21886;SDS011;11108;49.988;8.182;2024-01-11T05:34:42;6.47;;;5.97;;
21886;SDS011;11108;49.988;8.182;2024-01-11T05:37:07;6.90;;;6.30;;
21886;SDS011;11108;49.988;8.182;2024-01-11T05:39:32;5.67;;;5.23;;
21886;SDS011;11108;49.988;8.182;2024-01-11T05:41:58;6.80;;;6.20;;
21886;SDS011;11108;49.988;8.182;2024-01-11T05:44:23;6.40;;;5.80;;
21886;SDS011;11108;49.988;8.182;2024-01-11T05:46:48;6.40;;;5.80;;
21886;SDS011;11108;49.988;8.182;2024-01-11T05:49:13;6.40;;;5.80;;
21886;SDS011;11108;49.988;8.182;2024-01-11T05:51:38;6.10;;;5.60;;
21886;SDS011;11108;49.988;8.182;2024-01-11T05:54:03;6.00;;;5.50;;
21886;SDS011;11108;49.988;8.182;2024-01-11T05:56:29;6.20;;;5.80;;
21886;SDS011;11108;49.988;8.182;2024-01-11T05:58:54;6.20;;;5.70;;
21886;SDS011;11108;49.988;8.182;2024-01-11T06:01:19;6.00;;;5.50;;
21886;SDS011;11108;49.988;8.182;2024-01-11T06:03:44;6.40;;;5.80;;
21886;SDS011;11108;49.988;8.182;2024-01-11T06:06:10;6.97;;;5.97;;
21886;SDS011;11108;49.988;8.182;2024-01-11T06:08:36;6.23;;;5.67;;
21886;SDS011;11108;49.988;8.182;2024-01-11T06:11:01;5.90;;;5.40;;
21886;SDS011;11108;49.988;8.182;2024-01-11T06:13:26;5.77;;;5.23;;
21886;SDS011;11108;49.988;8.182;2024-01-11T06:15:52;6.17;;;5.67;;
21886;SDS011;11108;49.988;8.182;2024-01-11T06:18:18;5.70;;;5.20;;
21886;SDS011;11108;49.988;8.182;2024-01-11T06:20:43;6.07;;;5.57;;
21886;SDS011;11108;49.988;8.182;2024-01-11T06:23:08;5.90;;;5.50;;
21886;SDS011;11108;49.988;8.182;2024-01-11T06:25:33;6.07;;;5.57;;
21886;SDS011;11108;49.988;8.182;2024-01-11T06:27:59;5.70;;;5.30;;
21886;SDS011;11108;49.988;8.182;2024-01-11T06:30:24;6.10;;;5.60;;
21886;SDS011;11108;49.988;8.182;2024-01-11T06:32:49;6.13;;;5.60;;
21886;SDS011;11108;49.988;8.182;2024-01-11T06:35:14;6.40;;;5.80;;
21886;SDS011;11108;49.988;8.182;2024-01-11T06:37:39;5.40;;;5.00;;
21886;SDS011;11108;49.988;8.182;2024-01-11T06:40:05;6.17;;;5.57;;
21886;SDS011;11108;49.988;8.182;2024-01-11T06:42:33;6.07;;;5.57;;
21886;SDS011;11108;49.988;8.182;2024-01-11T06:44:58;6.37;;;5.77;;
21886;SDS011;11108;49.988;8.182;2024-01-11T06:47:23;6.33;;;5.80;;
21886;SDS011;11108;49.988;8.182;2024-01-11T06:49:48;6.17;;;5.67;;
21886;SDS011;11108;49.988;8.182;2024-01-11T06:52:13;6.40;;;5.90;;
21886;SDS011;11108;49.988;8.182;2024-01-11T06:54:39;6.27;;;5.63;;
21886;SDS011;11108;49.988;8.182;2024-01-11T06:57:04;6.20;;;5.70;;
21886;SDS011;11108;49.988;8.182;2024-01-11T06:59:29;6.07;;;5.57;;
21886;SDS011;11108;49.988;8.182;2024-01-11T07:01:55;6.87;;;6.27;;
21886;SDS011;11108;49.988;8.182;2024-01-11T07:04:20;6.50;;;5.90;;
21886;SDS011;11108;49.988;8.182;2024-01-11T07:06:45;6.07;;;5.57;;
21886;SDS011;11108;49.988;8.182;2024-01-11T07:09:10;6.10;;;5.50;;
21886;SDS011;11108;49.988;8.182;2024-01-11T07:11:36;6.00;;;5.40;;
21886;SDS011;11108;49.988;8.182;2024-01-11T07:14:01;6.47;;;5.60;;
21886;SDS011;11108;49.988;8.182;2024-01-11T07:16:26;6.03;;;5.43;;
21886;SDS011;11108;49.988;8.182;2024-01-11T07:18:51;6.50;;;5.83;;
21886;SDS011;11108;49.988;8.182;2024-01-11T07:21:21;5.83;;;5.33;;
21886;SDS011;11108;49.988;8.182;2024-01-11T07:23:54;8.27;;;6.20;;
21886;SDS011;11108;49.988;8.182;2024-01-11T07:26:19;6.73;;;6.13;;
21886;SDS011;11108;49.988;8.182;2024-01-11T07:28:45;5.90;;;5.47;;
21886;SDS011;11108;49.988;8.182;2024-01-11T07:31:10;6.67;;;6.07;;
21886;SDS011;11108;49.988;8.182;2024-01-11T07:33:35;6.27;;;5.63;;
21886;SDS011;11108;49.988;8.182;2024-01-11T07:36:01;7.73;;;5.77;;
21886;SDS011;11108;49.988;8.182;2024-01-11T07:38:26;7.30;;;6.03;;
21886;SDS011;11108;49.988;8.182;2024-01-11T07:40:52;6.33;;;5.70;;
21886;SDS011;11108;49.988;8.182;2024-01-11T07:43:17;6.00;;;5.33;;
21886;SDS011;11108;49.988;8.182;2024-01-11T07:45:42;6.20;;;5.60;;
21886;SDS011;11108;49.988;8.182;2024-01-11T07:48:07;6.60;;;5.93;;
21886;SDS011;11108;49.988;8.182;2024-01-11T07:50:33;8.90;;;5.87;;
21886;SDS011;11108;49.988;8.182;2024-01-11T07:52:58;7.27;;;5.50;;
21886;SDS011;11108;49.988;8.182;2024-01-11T07:55:24;6.70;;;6.00;;
21886;SDS011;11108;49.988;8.182;2024-01-11T07:57:49;8.93;;;6.43;;
21886;SDS011;11108;49.988;8.182;2024-01-11T08:00:15;6.50;;;5.60;;
21886;SDS011;11108;49.988;8.182;2024-01-11T08:02:40;7.00;;;6.40;;
21886;SDS011;11108;49.988;8.182;2024-01-11T08:05:05;6.67;;;6.03;;
21886;SDS011;11108;49.988;8.182;2024-01-11T08:07:31;7.53;;;5.87;;
21886;SDS011;11108;49.988;8.182;2024-01-11T08:09:56;7.47;;;6.20;;
21886;SDS011;11108;49.988;8.182;2024-01-11T08:12:21;6.37;;;5.80;;
21886;SDS011;11108;49.988;8.182;2024-01-11T08:14:46;6.60;;;5.97;;
21886;SDS011;11108;49.988;8.182;2024-01-11T08:17:13;6.57;;;5.97;;
21886;SDS011;11108;49.988;8.182;2024-01-11T08:19:41;7.73;;;5.97;;
21886;SDS011;11108;49.988;8.182;2024-01-11T08:22:07;8.10;;;6.40;;
21886;SDS011;11108;49.988;8.182;2024-01-11T08:24:32;6.47;;;5.63;;
21886;SDS011;11108;49.988;8.182;2024-01-11T08:27:00;6.53;;;5.77;;
21886;SDS011;11108;49.988;8.182;2024-01-11T08:29:25;6.73;;;6.13;;
21886;SDS011;11108;49.988;8.182;2024-01-11T08:31:50;7.10;;;6.40;;
21886;SDS011;11108;49.988;8.182;2024-01-11T08:34:16;7.07;;;5.53;;
21886;SDS011;11108;49.988;8.182;2024-01-11T08:36:41;6.10;;;5.50;;
21886;SDS011;11108;49.988;8.182;2024-01-11T08:39:06;6.67;;;6.10;;
21886;SDS011;11108;49.988;8.182;2024-01-11T08:41:33;6.40;;;5.90;;
21886;SDS011;11108;49.988;8.182;2024-01-11T08:43:58;6.77;;;6.03;;
21886;SDS011;11108;49.988;8.182;2024-01-11T08:46:24;6.30;;;5.70;;
21886;SDS011;11108;49.988;8.182;2024-01-11T08:48:50;6.97;;;6.30;;
21886;SDS011;11108;49.988;8.182;2024-01-11T08:51:15;8.93;;;7.30;;
21886;SDS011;11108;49.988;8.182;2024-01-11T08:53:40;9.23;;;5.73;;
21886;SDS011;11108;49.988;8.182;2024-01-11T08:56:05;8.67;;;6.40;;
21886;SDS011;11108;49.988;8.182;2024-01-11T08:58:31;7.63;;;6.27;;
21886;SDS011;11108;49.988;8.182;2024-01-11T09:00:56;6.97;;;6.27;;
21886;SDS011;11108;49.988;8.182;2024-01-11T09:03:21;8.23;;;5.73;;
21886;SDS011;11108;49.988;8.182;2024-01-11T09:05:46;6.83;;;6.10;;
21886;SDS011;11108;49.988;8.182;2024-01-11T09:08:12;7.50;;;6.80;;
21886;SDS011;11108;49.988;8.182;2024-01-11T09:10:37;7.30;;;6.60;;
21886;SDS011;11108;49.988;8.182;2024-01-11T09:13:02;8.53;;;6.40;;
21886;SDS011;11108;49.988;8.182;2024-01-11T09:15:27;7.03;;;6.40;;
21886;SDS011;11108;49.988;8.182;2024-01-11T09:17:53;6.50;;;5.60;;
21886;SDS011;11108;49.988;8.182;2024-01-11T09:20:18;9.17;;;6.50;;
21886;SDS011;11108;49.988;8.182;2024-01-11T09:22:43;6.83;;;6.10;;
21886;SDS011;11108;49.988;8.182;2024-01-11T09:25:10;8.50;;;6.50;;
21886;SDS011;11108;49.988;8.182;2024-01-11T09:27:35;7.77;;;6.37;;
21886;SDS011;11108;49.988;8.182;2024-01-11T09:30:00;9.33;;;5.70;;
21886;SDS011;11108;49.988;8.182;2024-01-11T09:32:26;7.17;;;6.47;;
21886;SDS011;11108;49.988;8.182;2024-01-11T09:34:51;7.43;;;6.13;;
21886;SDS011;11108;49.988;8.182;2024-01-11T09:37:16;8.17;;;6.47;;
21886;SDS011;11108;49.988;8.182;2024-01-11T09:39:41;6.53;;;5.90;;
21886;SDS011;11108;49.988;8.182;2024-01-11T09:42:08;8.13;;;6.93;;
21886;SDS011;11108;49.988;8.182;2024-01-11T09:44:36;6.67;;;6.07;;
21886;SDS011;11108;49.988;8.182;2024-01-11T09:47:03;6.97;;;6.37;;
21886;SDS011;11108;49.988;8.182;2024-01-11T09:49:29;7.20;;;6.50;;
21886;SDS011;11108;49.988;8.182;2024-01-11T09:51:55;6.90;;;6.13;;
21886;SDS011;11108;49.988;8.182;2024-01-11T09:54:22;7.60;;;6.20;;
21886;SDS011;11108;49.988;8.182;2024-01-11T09:56:49;7.27;;;6.57;;
21886;SDS011;11108;49.988;8.182;2024-01-11T09:59:15;6.80;;;6.13;;
21886;SDS011;11108;49.988;8.182;2024-01-11T10:01:43;6.93;;;6.33;;
21886;SDS011;11108;49.988;8.182;2024-01-11T10:04:08;7.57;;;6.47;;
21886;SDS011;11108;49.988;8.182;2024-01-11T10:06:34;7.33;;;6.63;;
21886;SDS011;11108;49.988;8.182;2024-01-11T10:09:03;6.83;;;6.23;;
21886;SDS011;11108;49.988;8.182;2024-01-11T10:11:28;8.97;;;6.20;;
21886;SDS011;11108;49.988;8.182;2024-01-11T10:13:57;8.13;;;6.93;;
21886;SDS011;11108;49.988;8.182;2024-01-11T10:16:22;7.97;;;7.17;;
21886;SDS011;11108;49.988;8.182;2024-01-11T10:18:49;6.70;;;6.20;;
21886;SDS011;11108;49.988;8.182;2024-01-11T10:21:14;6.93;;;6.33;;
21886;SDS011;11108;49.988;8.182;2024-01-11T10:23:39;7.60;;;6.50;;
21886;SDS011;11108;49.988;8.182;2024-01-11T10:26:05;7.43;;;6.73;;
21886;SDS011;11108;49.988;8.182;2024-01-11T10:28:32;7.00;;;6.30;;
21886;SDS011;11108;49.988;8.182;2024-01-11T10:31:01;15.23;;;7.00;;
21886;SDS011;11108;49.988;8.182;2024-01-11T10:33:26;12.20;;;6.87;;
21886;SDS011;11108;49.988;8.182;2024-01-11T10:35:51;6.70;;;6.00;;
21886;SDS011;11108;49.988;8.182;2024-01-11T10:38:17;7.47;;;6.80;;
21886;SDS011;11108;49.988;8.182;2024-01-11T10:40:43;7.10;;;6.50;;
21886;SDS011;11108;49.988;8.182;2024-01-11T10:43:08;6.47;;;5.93;;
21886;SDS011;11108;49.988;8.182;2024-01-11T10:45:36;6.40;;;5.80;;
21886;SDS011;11108;49.988;8.182;2024-01-11T10:48:05;6.80;;;6.20;;
21886;SDS011;11108;49.988;8.182;2024-01-11T10:50:34;7.07;;;6.43;;
21886;SDS011;11108;49.988;8.182;2024-01-11T10:53:12;6.97;;;6.27;;
21886;SDS011;11108;49.988;8.182;2024-01-11T10:55:37;6.50;;;5.90;;
21886;SDS011;11108;49.988;8.182;2024-01-11T10:58:03;7.30;;;6.60;;
21886;SDS011;11108;49.988;8.182;2024-01-11T11:00:28;7.33;;;6.63;;
21886;SDS011;11108;49.988;8.182;2024-01-11T11:02:55;7.63;;;6.93;;
21886;SDS011;11108;49.988;8.182;2024-01-11T11:05:21;6.97;;;6.20;;
21886;SDS011;11108;49.988;8.182;2024-01-11T11:07:48;7.00;;;6.30;;
21886;SDS011;11108;49.988;8.182;2024-01-11T11:10:14;7.87;;;6.43;;
21886;SDS011;11108;49.988;8.182;2024-01-11T11:12:40;7.17;;;6.50;;
21886;SDS011;11108;49.988;8.182;2024-01-11T11:15:07;7.50;;;6.80;;
21886;SDS011;11108;49.988;8.182;2024-01-11T11:17:33;7.70;;;7.00;;
21886;SDS011;11108;49.988;8.182;2024-01-11T11:19:58;6.47;;;5.87;;
21886;SDS011;11108;49.988;8.182;2024-01-11T11:22:26;7.80;;;7.10;;
21886;SDS011;11108;49.988;8.182;2024-01-11T11:25:02;7.20;;;6.60;;
21886;SDS011;11108;49.988;8.182;2024-01-11T11:27:27;7.97;;;7.17;;
21886;SDS011;11108;49.988;8.182;2024-01-11T11:29:52;7.70;;;7.00;;
21886;SDS011;11108;49.988;8.182;2024-01-11T11:32:18;8.93;;;7.00;;
21886;SDS011;11108;49.988;8.182;2024-01-11T11:34:59;7.33;;;6.63;;
21886;SDS011;11108;49.988;8.182;2024-01-11T11:37:24;7.07;;;6.47;;
21886;SDS011;11108;49.988;8.182;2024-01-11T11:39:49;7.27;;;6.57;;
21886;SDS011;11108;49.988;8.182;2024-01-11T11:42:14;6.80;;;6.20;;
21886;SDS011;11108;49.988;8.182;2024-01-11T11:44:49;7.10;;;6.43;;
21886;SDS011;11108;49.988;8.182;2024-01-11T11:47:21;7.37;;;6.67;;
21886;SDS011;11108;49.988;8.182;2024-01-11T11:49:57;8.37;;;7.13;;
21886;SDS011;11108;49.988;8.182;2024-01-11T11:52:23;8.93;;;7.77;;
21886;SDS011;11108;49.988;8.182;2024-01-11T11:54:48;9.97;;;7.60;;
21886;SDS011;11108;49.988;8.182;2024-01-11T11:57:16;9.30;;;8.30;;
21886;SDS011;11108;49.988;8.182;2024-01-11T11:59:41;10.23;;;8.63;;
21886;SDS011;11108;49.988;8.182;2024-01-11T12:02:07;15.17;;;10.13;;
21886;SDS011;11108;49.988;8.182;2024-01-11T12:04:40;18.57;;;13.43;;
21886;SDS011;11108;49.988;8.182;2024-01-11T12:07:05;16.20;;;14.50;;
21886;SDS011;11108;49.988;8.182;2024-01-11T12:09:30;17.93;;;15.10;;
21886;SDS011;11108;49.988;8.182;2024-01-11T12:11:56;21.17;;;16.60;;
21886;SDS011;11108;49.988;8.182;2024-01-11T12:14:21;20.13;;;17.37;;
21886;SDS011;11108;49.988;8.182;2024-01-11T12:16:55;19.63;;;17.20;;
21886;SDS011;11108;49.988;8.182;2024-01-11T12:19:20;21.67;;;17.80;;
21886;SDS011;11108;49.988;8.182;2024-01-11T12:21:45;21.57;;;17.93;;
21886;SDS011;11108;49.988;8.182;2024-01-11T12:24:10;20.53;;;18.03;;
21886;SDS011;11108;49.988;8.182;2024-01-11T12:26:35;24.60;;;19.63;;
21886;SDS011;11108;49.988;8.182;2024-01-11T12:29:02;22.47;;;19.13;;
21886;SDS011;11108;49.988;8.182;2024-01-11T12:31:27;23.17;;;18.77;;
21886;SDS011;11108;49.988;8.182;2024-01-11T12:33:52;25.33;;;19.97;;
21886;SDS011;11108;49.988;8.182;2024-01-11T12:36:18;26.67;;;19.80;;
21886;SDS011;11108;49.988;8.182;2024-01-11T12:38:47;23.37;;;20.60;;
21886;SDS011;11108;49.988;8.182;2024-01-11T12:41:13;23.47;;;19.37;;
21886;SDS011;11108;49.988;8.182;2024-01-11T12:43:38;27.00;;;20.40;;
21886;SDS011;11108;49.988;8.182;2024-01-11T12:46:03;25.13;;;20.37;;
21886;SDS011;11108;49.988;8.182;2024-01-11T12:48:28;28.73;;;20.67;;
21886;SDS011;11108;49.988;8.182;2024-01-11T12:50:55;22.73;;;19.00;;
21886;SDS011;11108;49.988;8.182;2024-01-11T12:53:20;25.03;;;20.70;;
21886;SDS011;11108;49.988;8.182;2024-01-11T12:55:45;25.13;;;19.63;;
21886;SDS011;11108;49.988;8.182;2024-01-11T12:58:11;24.27;;;20.20;;
21886;SDS011;11108;49.988;8.182;2024-01-11T13:00:37;21.87;;;18.47;;
21886;SDS011;11108;49.988;8.182;2024-01-11T13:03:02;20.77;;;18.37;;
21886;SDS011;11108;49.988;8.182;2024-01-11T13:05:28;26.27;;;19.17;;
21886;SDS011;11108;49.988;8.182;2024-01-11T13:07:54;22.77;;;17.77;;
21886;SDS011;11108;49.988;8.182;2024-01-11T13:10:21;24.87;;;18.60;;
21886;SDS011;11108;49.988;8.182;2024-01-11T13:12:49;22.03;;;18.13;;
21886;SDS011;11108;49.988;8.182;2024-01-11T13:15:14;21.07;;;17.40;;
21886;SDS011;11108;49.988;8.182;2024-01-11T13:17:39;21.20;;;17.83;;
21886;SDS011;11108;49.988;8.182;2024-01-11T13:20:05;21.43;;;16.90;;
21886;SDS011;11108;49.988;8.182;2024-01-11T13:22:31;21.97;;;17.53;;
21886;SDS011;11108;49.988;8.182;2024-01-11T13:24:56;19.80;;;16.17;;
21886;SDS011;11108;49.988;8.182;2024-01-11T13:27:21;18.57;;;15.60;;
21886;SDS011;11108;49.988;8.182;2024-01-11T13:29:46;18.33;;;15.20;;
21886;SDS011;11108;49.988;8.182;2024-01-11T13:32:12;18.30;;;15.37;;
21886;SDS011;11108;49.988;8.182;2024-01-11T13:34:37;17.83;;;15.97;;
21886;SDS011;11108;49.988;8.182;2024-01-11T13:37:03;20.57;;;15.37;;
21886;SDS011;11108;49.988;8.182;2024-01-11T13:39:28;20.90;;;14.87;;
21886;SDS011;11108;49.988;8.182;2024-01-11T13:41:53;18.23;;;14.80;;
21886;SDS011;11108;49.988;8.182;2024-01-11T13:44:19;16.70;;;13.50;;
21886;SDS011;11108;49.988;8.182;2024-01-11T13:46:44;17.70;;;14.10;;
21886;SDS011;11108;49.988;8.182;2024-01-11T13:49:09;16.63;;;13.43;;
21886;SDS011;11108;49.988;8.182;2024-01-11T13:51:34;19.10;;;13.73;;
21886;SDS011;11108;49.988;8.182;2024-01-11T13:54:00;17.47;;;13.30;;
21886;SDS011;11108;49.988;8.182;2024-01-11T13:56:25;18.77;;;12.97;;
21886;SDS011;11108;49.988;8.182;2024-01-11T13:58:51;17.60;;;13.73;;
21886;SDS011;11108;49.988;8.182;2024-01-11T14:01:16;14.97;;;12.53;;
21886;SDS011;11108;49.988;8.182;2024-01-11T14:03:42;13.53;;;12.13;;
21886;SDS011;11108;49.988;8.182;2024-01-11T14:06:07;15.87;;;12.20;;
21886;SDS011;11108;49.988;8.182;2024-01-11T14:08:32;15.23;;;12.33;;
21886;SDS011;11108;49.988;8.182;2024-01-11T14:10:57;14.17;;;11.40;;
21886;SDS011;11108;49.988;8.182;2024-01-11T14:13:23;13.40;;;11.47;;
21886;SDS011;11108;49.988;8.182;2024-01-11T14:15:48;15.13;;;11.03;;
21886;SDS011;11108;49.988;8.182;2024-01-11T14:18:15;14.60;;;11.50;;
21886;SDS011;11108;49.988;8.182;2024-01-11T14:20:41;12.87;;;10.77;;
21886;SDS011;11108;49.988;8.182;2024-01-11T14:23:06;12.90;;;10.90;;
21886;SDS011;11108;49.988;8.182;2024-01-11T14:25:31;12.43;;;10.53;;
21886;SDS011;11108;49.988;8.182;2024-01-11T14:27:56;12.37;;;11.00;;
21886;SDS011;11108;49.988;8.182;2024-01-11T14:30:21;11.43;;;10.30;;
21886;SDS011;11108;49.988;8.182;2024-01-11T14:32:47;12.97;;;10.07;;
21886;SDS011;11108;49.988;8.182;2024-01-11T14:35:12;11.27;;;9.57;;